Aniak, AK (99557)

12:28 AM AKDT on May 25, 2017 (GMT -0800)
Sparrevohn LRRS | | Change Station

Elev 1585 ft 61.10 °N, 155.57 °W | Updated 33 minutes ago

Partly Cloudy
Partly Cloudy
35 °F
Feels Like 26 °F
N
12
Wind Variable Wind from SSW

Today
High -- | Low -- °F
--% Chance of Precip.
Yesterday
High -- | Low -- °F
Precip. -- in
Pressure 29.92 in
Visibility 10.0 miles
Clouds Mostly Cloudy 1100 ft
Windchill 26 °F
Dew Point 32 °F
Humidity 91%
Rainfall 0.17 in
Snow Depth Not available.
5:10 AM 11:33 PM
Waning Crescent, 0% visible
METAR PASV 250755Z AUTO 20010KT 10SM BKN011 02/00 A2987 RMK AO2 SLP131 T00150002
Pressure 29.92 in
Visibility 10.0 miles
Clouds Mostly Cloudy 1100 ft
Windchill 26 °F
Dew Point 32 °F
Humidity 91%
Rainfall 0.17 in
Snow Depth Not available.
5:10 AM 11:33 PM
Waning Crescent, 0% visible
METAR PASV 250755Z AUTO 20010KT 10SM BKN011 02/00 A2987 RMK AO2 SLP131 T00150002

Get Severe Weather Alerts

Thanks for signing up!

Be on the lookout for a verification email in your inbox.

You'll start receiving the daily forecast at 6 AM.

×

10-Day Weather Forecast

Almanac

Astronomy

May. 25, 2017 Rise Set
Actual Time
Civil Twilight
Nautical Twilight
Astronomical Twilight
Moon
Length of Visible Light
Length of Day
Tomorrow will be .
, % of the Moon is Illuminated

Today's Extremes

State Highs State Lows

Community

WunderPhotos

Category 6

Welcome to Category 6. This is the collective home for Weather Underground's featured writeups by Dr. Jeff Masters (right), Bob Henson (left), Chris Burt, and other regular contributors.

Nearby

Air Quality

  Air Quality AQ Index Pollutant
Not available.

Snow Depth

Station Depth Elevation

Earthquake Activity

City Distance Mag. Time & Date
Minimum magnitude displayed is 2.5.

Coastal Water Temperatures

Place Temperature

Stations

Nearby Weather Stations

Station Location Temp. Windchill Dew Point Humidity Wind Precip. Elev Updated Type
                   

Watches & Warnings

There are currently no watches in effect.